createdAt,value
2018-02-15T00:00:27.672Z,39.97
2018-02-15T00:01:36.635Z,39.99
2018-02-15T00:02:45.852Z,40.08
2018-02-15T00:03:54.538Z,40.08
2018-02-15T00:05:03.491Z,39.87
2018-02-15T00:06:12.979Z,40.08
2018-02-15T00:07:21.669Z,39.87
2018-02-15T00:08:30.889Z,39.89
2018-02-15T00:09:39.580Z,40.06
2018-02-15T00:10:48.590Z,39.89
2018-02-15T00:11:57.278Z,40.16
2018-02-15T00:13:05.964Z,40.06
2018-02-15T00:14:14.656Z,39.99
2018-02-15T00:15:23.350Z,39.89
2018-02-15T00:16:32.577Z,40.18
2018-02-15T00:17:41.266Z,40.16
2018-02-15T00:18:50.760Z,39.99
2018-02-15T00:19:59.449Z,39.7
2018-02-15T00:21:08.136Z,39.68
2018-02-15T00:22:17.099Z,39.89
2018-02-15T00:23:25.784Z,40.06
2018-02-15T00:24:34.734Z,39.87
2018-02-15T00:25:43.423Z,39.89
2018-02-15T00:26:52.385Z,39.87
2018-02-15T00:28:01.075Z,39.87
2018-02-15T00:29:09.760Z,39.87
2018-02-15T00:30:18.986Z,39.87
2018-02-15T00:31:28.204Z,39.87
2018-02-15T00:32:37.425Z,39.89
2018-02-15T00:33:46.115Z,40.06
2018-02-15T00:34:54.804Z,39.58
2018-02-15T00:36:04.292Z,39.99
2018-02-15T00:37:12.980Z,39.97
2018-02-15T00:38:21.937Z,39.58
2018-02-15T00:39:30.631Z,39.87
2018-02-15T00:40:39.851Z,39.61
2018-02-15T00:41:48.806Z,39.78
2018-02-15T00:42:57.492Z,39.58
2018-02-15T00:44:06.707Z,39.97
2018-02-15T00:45:15.391Z,39.87
2018-02-15T00:46:24.343Z,39.78
2018-02-15T00:47:33.296Z,39.97
2018-02-15T00:48:42.248Z,39.87
2018-02-15T00:49:51.200Z,39.87
2018-02-15T00:51:00.424Z,39.87
2018-02-15T00:52:09.648Z,39.97
2018-02-15T00:53:18.869Z,39.87
2018-02-15T00:54:27.558Z,39.78
2018-02-15T00:55:36.513Z,39.87
2018-02-15T00:56:45.199Z,39.68
2018-02-15T00:57:53.885Z,39.87
2018-02-15T00:59:02.836Z,39.97
2018-02-15T01:00:12.063Z,39.78
2018-02-15T01:01:21.288Z,39.87
2018-02-15T01:02:29.975Z,39.87
2018-02-15T01:03:38.661Z,39.97
2018-02-15T01:04:47.616Z,39.97
2018-02-15T01:05:56.308Z,39.87
2018-02-15T01:07:05.261Z,39.87
2018-02-15T01:08:14.481Z,39.87
2018-02-15T01:09:23.432Z,39.87
2018-02-15T01:10:32.393Z,39.78
2018-02-15T01:11:41.350Z,39.58
2018-02-15T01:12:50.304Z,39.78
2018-02-15T01:13:58.995Z,39.78
2018-02-15T01:15:07.948Z,39.68
2018-02-15T01:16:16.636Z,39.78
2018-02-15T01:17:25.322Z,39.87
2018-02-15T01:18:34.546Z,39.78
2018-02-15T01:19:43.236Z,39.78
2018-02-15T01:20:51.921Z,39.78
2018-02-15T01:22:00.879Z,39.78
2018-02-15T01:23:09.575Z,39.78
2018-02-15T01:24:18.264Z,39.78
2018-02-15T01:25:27.218Z,39.78
2018-02-15T01:26:36.172Z,39.78
2018-02-15T01:27:45.391Z,39.68
2018-02-15T01:28:54.082Z,39.87
2018-02-15T01:30:03.578Z,39.97
2018-02-15T01:31:12.794Z,39.87
2018-02-15T01:32:22.019Z,39.87
2018-02-15T01:33:30.706Z,39.87
2018-02-15T01:34:39.395Z,39.78
2018-02-15T01:35:48.351Z,39.87
2018-02-15T01:36:57.046Z,39.87
2018-02-15T01:38:06.003Z,39.87
2018-02-15T01:39:15.492Z,39.87
2018-02-15T01:40:24.710Z,39.87
2018-02-15T01:41:33.660Z,39.68
2018-02-15T01:42:42.350Z,39.87
2018-02-15T01:43:51.618Z,39.87
2018-02-15T01:45:00.258Z,39.87
2018-02-15T01:46:09.217Z,39.87
2018-02-15T01:47:18.439Z,39.87
2018-02-15T01:48:27.666Z,39.87
2018-02-15T01:49:36.886Z,39.87
2018-02-15T01:50:46.107Z,39.58
2018-02-15T01:51:55.059Z,39.78
2018-02-15T01:53:04.008Z,39.78
2018-02-15T01:54:12.698Z,39.58
2018-02-15T01:55:21.655Z,39.68
2018-02-15T01:56:30.609Z,39.68
2018-02-15T01:57:39.565Z,39.68
2018-02-15T01:58:48.249Z,39.58
2018-02-15T01:59:57.472Z,39.68
2018-02-15T02:01:06.434Z,39.78
2018-02-15T02:02:15.389Z,39.68
2018-02-15T02:03:24.080Z,39.68
2018-02-15T02:04:33.038Z,39.68
2018-02-15T02:05:41.989Z,39.78
2018-02-15T02:06:50.673Z,39.68
2018-02-15T02:07:59.359Z,39.68
2018-02-15T02:09:08.053Z,39.78
2018-02-15T02:10:16.745Z,39.87
2018-02-15T02:11:25.971Z,39.68
2018-02-15T02:12:35.194Z,39.78
2018-02-15T02:13:44.414Z,39.78
2018-02-15T02:14:53.101Z,39.87
2018-02-15T02:16:02.063Z,39.58
2018-02-15T02:17:11.015Z,39.78
2018-02-15T02:18:19.703Z,39.78
2018-02-15T02:19:28.657Z,39.87
2018-02-15T02:20:37.614Z,39.78
2018-02-15T02:21:46.304Z,39.97
2018-02-15T02:22:54.991Z,39.68
2018-02-15T02:24:03.941Z,39.78
2018-02-15T02:25:12.899Z,39.87
2018-02-15T02:26:22.118Z,39.87
2018-02-15T02:27:30.805Z,39.87
2018-02-15T02:28:39.492Z,39.87
2018-02-15T02:29:48.184Z,39.87
2018-02-15T02:30:57.142Z,39.78
2018-02-15T02:32:06.639Z,39.97
2018-02-15T02:33:15.597Z,39.87
2018-02-15T02:34:24.283Z,39.97
2018-02-15T02:35:32.975Z,39.58
2018-02-15T02:36:42.740Z,39.58
2018-02-15T02:37:52.235Z,39.58
2018-02-15T02:39:00.924Z,39.58
2018-02-15T02:40:10.158Z,39.78
2018-02-15T02:41:19.397Z,39.68
2018-02-15T02:42:28.084Z,39.78
2018-02-15T02:43:37.033Z,39.68
2018-02-15T02:44:45.725Z,39.97
2018-02-15T02:45:54.955Z,40.06
2018-02-15T02:47:03.641Z,40.06
2018-02-15T02:48:12.873Z,40.06
2018-02-15T02:49:22.101Z,40.06
2018-02-15T02:50:30.789Z,40.06
2018-02-15T02:51:40.012Z,39.97
2018-02-15T02:52:49.508Z,39.97
2018-02-15T02:53:59.009Z,40.06
2018-02-15T02:55:07.698Z,40.06
2018-02-15T02:56:16.655Z,40.06
2018-02-15T02:57:25.343Z,39.87
2018-02-15T02:58:34.031Z,39.97
2018-02-15T02:59:42.984Z,40.06
2018-02-15T03:00:51.944Z,39.97
2018-02-15T03:02:00.901Z,40.06
2018-02-15T03:03:10.390Z,39.97
2018-02-15T03:04:19.082Z,40.16
2018-02-15T03:05:27.771Z,39.97
2018-02-15T03:06:36.456Z,39.97
2018-02-15T03:07:45.416Z,39.49
2018-02-15T03:08:54.368Z,40.16
2018-02-15T03:10:03.061Z,39.97
2018-02-15T03:11:11.747Z,39.97
2018-02-15T03:12:21.238Z,39.97
2018-02-15T03:13:30.191Z,39.97
2018-02-15T03:14:39.153Z,40.16
2018-02-15T03:15:48.371Z,39.97
2018-02-15T03:16:57.326Z,39.97
2018-02-15T03:18:06.278Z,39.58
2018-02-15T03:19:15.231Z,39.39
2018-02-15T03:20:24.455Z,39.68
2018-02-15T03:21:33.143Z,40.16
2018-02-15T03:22:42.363Z,39.49
2018-02-15T03:23:51.053Z,39.29
2018-02-15T03:25:00.537Z,39.39
2018-02-15T03:26:09.492Z,39.39
2018-02-15T03:27:18.180Z,40.06
2018-02-15T03:28:27.398Z,39.29
2018-02-15T03:29:36.357Z,40.06
2018-02-15T03:30:45.313Z,40.06
2018-02-15T03:31:54.273Z,40.16
2018-02-15T03:33:03.771Z,40.06
2018-02-15T03:34:12.740Z,39.97
2018-02-15T03:35:21.697Z,39.49
2018-02-15T03:36:30.931Z,39.39
2018-02-15T03:37:39.618Z,39.29
2018-02-15T03:38:48.570Z,39.29
2018-02-15T03:39:57.790Z,39.11
2018-02-15T03:41:06.748Z,39.11
2018-02-15T03:42:15.967Z,39.11
2018-02-15T03:43:24.653Z,39.39
2018-02-15T03:44:33.874Z,39.01
2018-02-15T03:45:42.835Z,39.2
2018-02-15T03:46:52.055Z,39.11
2018-02-15T03:48:00.740Z,39.11
2018-02-15T03:49:09.690Z,39.28
2018-02-15T03:50:18.650Z,39.11
2018-02-15T03:51:27.336Z,39.11
2018-02-15T03:52:36.026Z,38.99
2018-02-15T03:53:44.977Z,39.39
2018-02-15T03:54:54.201Z,39.29
2018-02-15T03:56:03.681Z,39.29
2018-02-15T03:57:12.894Z,39.28
2018-02-15T03:58:22.370Z,39.08
2018-02-15T03:59:31.583Z,39.2
2018-02-15T04:00:40.264Z,39.29
2018-02-15T04:01:48.944Z,39.29
2018-02-15T04:02:57.887Z,39.2
2018-02-15T04:04:06.846Z,39.01
2018-02-15T04:05:15.520Z,38.99
2018-02-15T04:06:24.468Z,39.58
2018-02-15T04:07:33.414Z,38.99
2018-02-15T04:08:42.902Z,39.08
2018-02-15T04:09:52.112Z,39.08
2018-02-15T04:11:01.052Z,38.89
2018-02-15T04:12:09.996Z,38.89
2018-02-15T04:13:18.677Z,39.2
2018-02-15T04:14:27.357Z,38.89
2018-02-15T04:15:36.564Z,39.18
2018-02-15T04:16:45.241Z,38.79
2018-02-15T04:17:53.921Z,38.89
2018-02-15T04:19:03.137Z,38.91
2018-02-15T04:20:12.348Z,39.01
2018-02-15T04:21:21.296Z,39.68
2018-02-15T04:22:30.505Z,39.28
2018-02-15T04:23:39.447Z,38.99
2018-02-15T04:24:48.392Z,39.08
2018-02-15T04:25:57.336Z,39.08
2018-02-15T04:27:06.808Z,39.08
2018-02-15T04:28:15.753Z,39.01
2018-02-15T04:29:24.959Z,39.28
2018-02-15T04:30:34.176Z,38.99
2018-02-15T04:31:42.857Z,38.99
2018-02-15T04:32:51.533Z,39.01
2018-02-15T04:34:00.213Z,39.01
2018-02-15T04:35:08.890Z,38.89
2018-02-15T04:36:17.568Z,38.91
2018-02-15T04:37:26.512Z,39.2
2018-02-15T04:38:35.452Z,39.2
2018-02-15T04:39:44.132Z,39.11
2018-02-15T04:40:52.810Z,39.2
2018-02-15T04:42:01.752Z,39.11
2018-02-15T04:43:10.738Z,39.29
2018-02-15T04:44:19.418Z,39.28
2018-02-15T04:45:28.634Z,39.18
2018-02-15T04:46:37.313Z,39.18
2018-02-15T04:47:46.258Z,38.89
2018-02-15T04:48:54.931Z,39.18
2018-02-15T04:50:03.874Z,38.89
2018-02-15T04:51:12.550Z,38.91
2018-02-15T04:52:21.231Z,39.18
2018-02-15T04:53:29.908Z,38.7
2018-02-15T04:54:38.848Z,39.08
2018-02-15T04:55:47.795Z,38.79
2018-02-15T04:56:57.006Z,38.7
2018-02-15T04:58:06.210Z,38.79
2018-02-15T04:59:14.890Z,38.89
2018-02-15T05:00:23.837Z,39.11
2018-02-15T05:01:33.053Z,38.79
2018-02-15T05:02:42.257Z,39.08
2018-02-15T05:03:51.733Z,38.99
2018-02-15T05:05:00.675Z,39.08
2018-02-15T05:06:09.888Z,38.99
2018-02-15T05:07:18.562Z,38.89
2018-02-15T05:08:27.504Z,39.18
2018-02-15T05:09:36.713Z,38.79
2018-02-15T05:10:45.662Z,38.99
2018-02-15T05:11:54.608Z,38.99
2018-02-15T05:13:03.820Z,38.6
2018-02-15T05:14:12.772Z,38.99
2018-02-15T05:15:21.715Z,38.99
2018-02-15T05:16:30.654Z,38.89
2018-02-15T05:17:39.593Z,38.79
2018-02-15T05:18:48.276Z,38.81
2018-02-15T05:19:56.959Z,38.51
2018-02-15T05:21:05.922Z,38.62
2018-02-15T05:22:14.598Z,39.85
2018-02-15T05:23:24.079Z,39.01
2018-02-15T05:24:33.023Z,38.91
2018-02-15T05:25:41.967Z,39.08
2018-02-15T05:26:50.644Z,39.01
2018-02-15T05:27:59.323Z,38.99
2018-02-15T05:29:08.272Z,39.08
2018-02-15T05:30:17.213Z,39.01
2018-02-15T05:31:26.424Z,39.87
2018-02-15T05:32:35.104Z,38.81
2018-02-15T05:33:44.051Z,39.01
2018-02-15T05:34:52.730Z,38.62
2018-02-15T05:36:01.670Z,39.01
2018-02-15T05:37:10.615Z,39.01
2018-02-15T05:38:19.554Z,39.01
2018-02-15T05:39:28.231Z,38.62
2018-02-15T05:40:37.171Z,39.01
2018-02-15T05:41:45.851Z,38.81
2018-02-15T05:42:54.528Z,38.91
2018-02-15T05:44:03.207Z,39.01
2018-02-15T05:45:12.148Z,38.81
2018-02-15T05:46:20.828Z,39.01
2018-02-15T05:47:29.776Z,38.81
2018-02-15T05:48:38.986Z,38.81
2018-02-15T05:49:47.930Z,39.01
2018-02-15T05:50:56.874Z,38.81
2018-02-15T05:52:06.084Z,38.81
2018-02-15T05:53:15.032Z,39.29
2018-02-15T05:54:24.508Z,39.58
2018-02-15T05:55:33.713Z,39.58
2018-02-15T05:56:42.925Z,39.87
2018-02-15T05:57:52.396Z,39.68
2018-02-15T05:59:01.340Z,39.68
2018-02-15T06:00:10.286Z,39.87
2018-02-15T06:01:19.261Z,39.78
2018-02-15T06:02:28.105Z,39.78
2018-02-15T06:03:36.780Z,39.97
2018-02-15T06:04:45.991Z,39.97
2018-02-15T06:05:54.940Z,39.78
2018-02-15T06:07:03.890Z,39.68
2018-02-15T06:08:12.836Z,39.78
2018-02-15T06:09:21.521Z,39.87
2018-02-15T06:10:30.467Z,39.87
2018-02-15T06:11:39.141Z,40.35
2018-02-15T06:12:47.817Z,39.97
2018-02-15T06:13:56.502Z,39.87
2018-02-15T06:15:05.180Z,40.35
2018-02-15T06:16:14.124Z,40.45
2018-02-15T06:17:23.069Z,41.02
2018-02-15T06:18:32.280Z,40.83
2018-02-15T06:19:40.959Z,40.64
2018-02-15T06:20:50.168Z,40.35
2018-02-15T06:21:59.113Z,39.68
2018-02-15T06:23:08.324Z,38.7
2018-02-15T06:24:17.537Z,39.28
2018-02-15T06:25:26.756Z,39.45
2018-02-15T06:26:35.701Z,39.93
2018-02-15T06:27:44.380Z,39.93
2018-02-15T06:28:53.059Z,39.95
2018-02-15T06:30:01.735Z,40.23
2018-02-15T06:31:10.418Z,41.1
2018-02-15T06:32:51.706Z,41.29
2018-02-15T06:34:00.651Z,41.67
2018-02-15T06:35:09.334Z,42.06
2018-02-15T06:36:18.042Z,41.77
2018-02-15T06:37:27.234Z,42.06
2018-02-15T06:38:35.910Z,42.54
2018-02-15T06:39:44.856Z,42.73
2018-02-15T06:40:53.534Z,42.54
2018-02-15T06:42:02.224Z,42.64
2018-02-15T06:43:11.430Z,42.83
2018-02-15T06:44:20.370Z,42.73
2018-02-15T06:45:29.311Z,42.64
2018-02-15T06:46:38.517Z,42.93
2018-02-15T06:47:47.196Z,42.93
2018-02-15T06:48:56.407Z,42.44
2018-02-15T06:50:05.084Z,42.35
2018-02-15T06:51:14.291Z,42.06
2018-02-15T06:52:23.500Z,42.25
2018-02-15T06:53:32.176Z,42.25
2018-02-15T06:54:41.121Z,41.96
2018-02-15T06:55:50.066Z,41.99
2018-02-15T06:56:58.749Z,42.16
2018-02-15T06:58:07.427Z,42.08
2018-02-15T06:59:16.106Z,41.99
2018-02-15T07:00:25.311Z,42.16
2018-02-15T07:01:34.782Z,42.08
2018-02-15T07:02:43.723Z,42.06
2018-02-15T07:03:52.667Z,42.08
2018-02-15T07:05:01.345Z,42.08
2018-02-15T07:06:10.023Z,41.77
2018-02-15T07:07:18.964Z,41.7
2018-02-15T07:08:27.640Z,41.99
2018-02-15T07:09:36.848Z,41.89
2018-02-15T07:10:45.531Z,41.7
2018-02-15T07:11:54.753Z,41.7
2018-02-15T07:13:03.698Z,41.89
2018-02-15T07:14:12.640Z,41.79
2018-02-15T07:15:21.586Z,41.6
2018-02-15T07:16:30.532Z,41.99
2018-02-15T07:17:39.480Z,41.7
2018-02-15T07:18:48.156Z,41.7
2018-02-15T07:19:57.102Z,41.6
2018-02-15T07:21:05.784Z,41.79
2018-02-15T07:22:14.995Z,41.6
2018-02-15T07:23:24.212Z,41.7
2018-02-15T07:24:32.897Z,41.5
2018-02-15T07:25:41.835Z,41.7
2018-02-15T07:26:50.516Z,41.7
2018-02-15T07:27:59.460Z,41.5
2018-02-15T07:29:08.670Z,41.6
2018-02-15T07:30:17.613Z,41.6
2018-02-15T07:31:26.557Z,41.5
2018-02-15T07:32:35.233Z,41.41
2018-02-15T07:33:44.177Z,41.31
2018-02-15T07:34:53.121Z,41.41
2018-02-15T07:36:02.328Z,41.5
2018-02-15T07:37:11.274Z,41.31
2018-02-15T07:38:20.214Z,41.41
2018-02-15T07:39:28.891Z,41.22
2018-02-15T07:40:37.837Z,41.31
2018-02-15T07:41:46.780Z,41.22
2018-02-15T07:42:55.460Z,41.31
2018-02-15T07:44:04.401Z,41.31
2018-02-15T07:45:13.345Z,41.31
2018-02-15T07:46:22.288Z,41.31
2018-02-15T07:47:30.964Z,41.41
2018-02-15T07:48:40.445Z,41.41
2018-02-15T07:49:49.386Z,41.41
2018-02-15T07:50:58.323Z,41.6
2018-02-15T07:52:07.003Z,41.31
2018-02-15T07:53:16.216Z,41.22
2018-02-15T07:54:25.159Z,41.5
2018-02-15T07:55:33.837Z,41.41
2018-02-15T07:56:42.515Z,41.31
2018-02-15T07:57:51.718Z,41.31
2018-02-15T07:59:00.660Z,41.41
2018-02-15T08:00:09.604Z,41.41
2018-02-15T08:01:18.547Z,41.5
2018-02-15T08:02:28.021Z,41.5
2018-02-15T08:03:36.965Z,41.5
2018-02-15T08:04:45.641Z,41.22
2018-02-15T08:05:54.320Z,41.31
2018-02-15T08:07:03.261Z,41.31
2018-02-15T08:08:12.482Z,41.22
2018-02-15T08:09:21.158Z,41.12
2018-02-15T08:10:30.365Z,41.12
2018-02-15T08:11:39.570Z,41.12
2018-02-15T08:12:48.518Z,41.22
2018-02-15T08:13:57.466Z,41.41
2018-02-15T08:15:06.673Z,41.12
2018-02-15T08:16:15.881Z,41.22
2018-02-15T08:17:25.088Z,41.12
2018-02-15T08:18:34.030Z,41.31
2018-02-15T08:19:43.498Z,41.12
2018-02-15T08:20:52.246Z,41.41
2018-02-15T08:22:01.453Z,41.41
2018-02-15T08:23:10.394Z,41.31
2018-02-15T08:24:19.075Z,41.5
2018-02-15T08:25:28.018Z,41.41
2018-02-15T08:26:36.965Z,41.2
2018-02-15T08:27:45.645Z,41.41
2018-02-15T08:28:54.859Z,41.12
2018-02-15T08:30:03.810Z,41.22
2018-02-15T08:31:12.763Z,41.31
2018-02-15T08:32:21.977Z,41.31
2018-02-15T08:33:30.928Z,41.12
2018-02-15T08:34:39.607Z,41.22
2018-02-15T08:35:48.552Z,41.12
2018-02-15T08:36:57.500Z,41.12
2018-02-15T08:38:06.445Z,41.2
2018-02-15T08:39:15.388Z,41.1
2018-02-15T08:40:24.595Z,41.2
2018-02-15T08:41:33.537Z,41.31
2018-02-15T08:42:42.481Z,41
2018-02-15T08:43:51.157Z,41.22
2018-02-15T08:44:59.832Z,41
2018-02-15T08:46:09.044Z,41.22
2018-02-15T08:47:17.987Z,41.29
2018-02-15T08:48:26.930Z,41.2
2018-02-15T08:49:35.610Z,40.91
2018-02-15T08:50:44.288Z,41
2018-02-15T08:51:52.960Z,41.2
2018-02-15T08:53:01.641Z,41.31
2018-02-15T08:54:10.314Z,41
2018-02-15T08:55:19.525Z,41.22
2018-02-15T08:56:28.471Z,40.91
2018-02-15T08:57:37.419Z,41.31
2018-02-15T08:58:46.357Z,40.93
2018-02-15T08:59:55.032Z,40.91
2018-02-15T09:01:03.971Z,41.02
2018-02-15T09:02:12.646Z,41.02
2018-02-15T09:03:21.863Z,41.02
2018-02-15T09:04:30.541Z,41.02
2018-02-15T09:05:39.745Z,40.93
2018-02-15T09:06:48.701Z,40.93
2018-02-15T09:07:57.914Z,41.22
2018-02-15T09:09:06.856Z,40.93
2018-02-15T09:10:15.801Z,41.22
2018-02-15T09:11:24.742Z,41.12
2018-02-15T09:12:33.685Z,40.93
2018-02-15T09:13:42.627Z,41.2
2018-02-15T09:14:51.573Z,41.02
2018-02-15T09:16:00.515Z,41.12
2018-02-15T09:17:09.190Z,41.1
2018-02-15T09:18:18.395Z,41.1
2018-02-15T09:19:27.341Z,41.02
2018-02-15T09:20:36.283Z,41.1
2018-02-15T09:21:45.232Z,41.22
2018-02-15T09:22:54.176Z,40.91
2018-02-15T09:24:03.119Z,41.12
2018-02-15T09:25:11.796Z,41
2018-02-15T09:26:21.533Z,41.1
2018-02-15T09:27:30.212Z,41.02
2018-02-15T09:28:39.157Z,40.93
2018-02-15T09:29:48.366Z,41.02
2018-02-15T09:30:57.314Z,41.1
2018-02-15T09:32:06.255Z,41.31
2018-02-15T09:33:15.468Z,41.02
2018-02-15T09:34:24.407Z,41.02
2018-02-15T09:35:33.360Z,41.1
2018-02-15T09:36:42.040Z,41.31
2018-02-15T09:37:50.989Z,41.29
2018-02-15T09:39:00.196Z,41.22
2018-02-15T09:40:09.670Z,41
2018-02-15T09:41:18.619Z,41.31
2018-02-15T09:42:27.296Z,41.22
2018-02-15T09:43:36.244Z,40.93
2018-02-15T09:44:45.190Z,40.83
2018-02-15T09:45:54.132Z,40.73
2018-02-15T09:47:02.917Z,40.81
2018-02-15T09:48:11.824Z,41.29
2018-02-15T09:49:20.770Z,41.22
2018-02-15T09:50:29.714Z,40.91
2018-02-15T09:51:38.464Z,40.93
2018-02-15T09:52:47.143Z,41.2
2018-02-15T09:53:56.095Z,40.83
2018-02-15T09:55:04.770Z,40.83
2018-02-15T09:56:13.714Z,40.83
2018-02-15T09:57:22.661Z,40.73
2018-02-15T09:58:31.606Z,40.91
2018-02-15T09:59:41.124Z,41.1
2018-02-15T10:00:50.029Z,41.12
2018-02-15T10:01:58.705Z,41.12
2018-02-15T10:03:07.652Z,40.91
2018-02-15T10:04:16.595Z,40.72
2018-02-15T10:05:25.268Z,40.81
2018-02-15T10:06:34.549Z,41.22
2018-02-15T10:07:43.490Z,41.1
2018-02-15T10:08:52.443Z,41.12
2018-02-15T10:10:01.125Z,41.1
2018-02-15T10:11:09.806Z,40.73
2018-02-15T10:12:18.755Z,41.12
2018-02-15T10:13:27.967Z,41.12
2018-02-15T10:14:36.912Z,40.62
2018-02-15T10:15:45.861Z,41.1
2018-02-15T10:16:55.074Z,41.1
2018-02-15T10:18:04.020Z,41.1
2018-02-15T10:19:12.966Z,40.62
2018-02-15T10:20:21.909Z,40.62
2018-02-15T10:21:30.849Z,41.1
2018-02-15T10:22:39.792Z,41.1
2018-02-15T10:23:49.017Z,41.1
2018-02-15T10:24:58.223Z,41.1
2018-02-15T10:26:07.177Z,41.1
2018-02-15T10:27:15.851Z,41.1
2018-02-15T10:28:25.591Z,41.2
2018-02-15T10:29:34.267Z,41.1
2018-02-15T10:30:42.946Z,41.02
2018-02-15T10:31:52.425Z,41.1
2018-02-15T10:33:01.637Z,41.1
2018-02-15T10:34:10.363Z,41.1
2018-02-15T10:35:19.267Z,41.1
2018-02-15T10:36:28.211Z,41.1
2018-02-15T10:37:37.151Z,41.1
2018-02-15T10:38:46.362Z,41
2018-02-15T10:39:55.578Z,41.1
2018-02-15T10:41:05.060Z,41
2018-02-15T10:42:13.740Z,41.2
2018-02-15T10:43:22.419Z,41.2
2018-02-15T10:44:31.103Z,41.1
2018-02-15T10:45:40.044Z,41.29
2018-02-15T10:46:48.719Z,41.1
2018-02-15T10:47:57.660Z,41
2018-02-15T10:49:06.601Z,41.2
2018-02-15T10:50:15.546Z,41.1
2018-02-15T10:51:24.487Z,41
2018-02-15T10:52:33.696Z,41.1
2018-02-15T10:53:42.639Z,41
2018-02-15T10:54:51.584Z,41.1
2018-02-15T10:56:00.528Z,41
2018-02-15T10:57:09.469Z,41.2
2018-02-15T10:58:18.411Z,41
2018-02-15T10:59:27.358Z,41.1
2018-02-15T11:00:36.570Z,41
2018-02-15T11:01:45.781Z,41.2
2018-02-15T11:02:54.722Z,41
2018-02-15T11:04:03.665Z,41.2
2018-02-15T11:05:12.615Z,41
2018-02-15T11:06:21.295Z,41.2
2018-02-15T11:07:29.978Z,41.1
2018-02-15T11:08:38.921Z,41
2018-02-15T11:09:47.869Z,40.91
2018-02-15T11:10:56.811Z,41.29
2018-02-15T11:12:06.564Z,41
2018-02-15T11:13:15.509Z,41
2018-02-15T11:14:24.719Z,41
2018-02-15T11:15:33.659Z,41
2018-02-15T11:16:42.888Z,41
2018-02-15T11:17:51.829Z,41
2018-02-15T11:19:00.778Z,41
2018-02-15T11:20:09.991Z,41
2018-02-15T11:21:18.935Z,40.91
2018-02-15T11:22:27.880Z,41.1
2018-02-15T11:23:36.560Z,41
2018-02-15T11:24:45.507Z,41
2018-02-15T11:25:54.714Z,41.02
2018-02-15T11:27:03.397Z,41.1
2018-02-15T11:28:12.074Z,41.02
2018-02-15T11:29:20.748Z,41
2018-02-15T11:30:29.688Z,41.1
2018-02-15T11:31:38.628Z,41
2018-02-15T11:32:47.310Z,41
2018-02-15T11:33:55.989Z,41.12
2018-02-15T11:35:05.194Z,41.12
2018-02-15T11:36:14.140Z,41.02
2018-02-15T11:37:22.816Z,41.12
2018-02-15T11:38:31.494Z,41.12
2018-02-15T11:39:40.432Z,41.02
2018-02-15T11:40:49.376Z,41.12
2018-02-15T11:41:58.320Z,41.12
2018-02-15T11:43:07.261Z,41.12
2018-02-15T11:44:16.201Z,41.02
2018-02-15T11:45:25.675Z,41.12
2018-02-15T11:46:34.354Z,41.12
2018-02-15T11:47:43.032Z,41.12
2018-02-15T11:48:51.971Z,41.22
2018-02-15T11:50:00.916Z,41.22
2018-02-15T11:51:09.592Z,41.12
2018-02-15T11:52:19.065Z,41.41
2018-02-15T11:53:28.277Z,41.12
2018-02-15T11:54:36.956Z,41.22
2018-02-15T11:55:45.903Z,41.22
2018-02-15T11:56:54.582Z,41.31
2018-02-15T11:58:03.260Z,41.22
2018-02-15T11:59:12.199Z,41.22
2018-02-15T12:00:21.141Z,41.12
2018-02-15T12:01:30.351Z,41.31
2018-02-15T12:02:39.026Z,41.31
2018-02-15T12:03:48.236Z,41.31
2018-02-15T12:04:56.911Z,40.93
2018-02-15T12:06:05.589Z,41.12
2018-02-15T12:07:14.534Z,41.22
2018-02-15T12:08:23.209Z,41.12
2018-02-15T12:09:32.156Z,41.22
2018-02-15T12:10:40.879Z,41.22
2018-02-15T12:11:49.787Z,41.22
2018-02-15T12:12:59.527Z,41.22
2018-02-15T12:14:08.731Z,41.31
2018-02-15T12:15:17.676Z,41.12
2018-02-15T12:16:26.355Z,41.31
2018-02-15T12:17:35.305Z,41.31
2018-02-15T12:18:44.247Z,41.12
2018-02-15T12:19:53.188Z,41.12
2018-02-15T12:21:01.866Z,41.22
2018-02-15T12:22:10.858Z,41.22
2018-02-15T12:23:20.327Z,41.22
2018-02-15T12:24:29.271Z,41.12
2018-02-15T12:25:39.019Z,40.45
2018-02-15T12:26:47.960Z,40.06
2018-02-15T12:27:56.640Z,39.58
2018-02-15T12:29:05.317Z,39.85
2018-02-15T12:30:14.547Z,39.85
2018-02-15T12:31:23.225Z,40.23
2018-02-15T12:32:32.170Z,40.14
2018-02-15T12:33:40.852Z,40.43
2018-02-15T12:34:50.058Z,40.43
2018-02-15T12:35:58.738Z,40.91
2018-02-15T12:37:07.683Z,41
2018-02-15T12:38:16.628Z,41.2
2018-02-15T12:39:25.571Z,41
2018-02-15T12:40:34.246Z,41.2
2018-02-15T12:41:42.925Z,41.1
2018-02-15T12:42:51.872Z,41.2
2018-02-15T12:44:00.812Z,41.49
2018-02-15T12:45:10.019Z,41.49
2018-02-15T12:46:18.963Z,41.29
2018-02-15T12:47:27.908Z,41.2
2018-02-15T12:48:36.587Z,41.1
2018-02-15T12:49:45.531Z,41.1
2018-02-15T12:50:54.473Z,41.1
2018-02-15T12:52:03.150Z,41
2018-02-15T12:53:12.095Z,41.2
2018-02-15T12:54:20.774Z,41.41
2018-02-15T12:55:29.721Z,41.39
2018-02-15T12:56:38.398Z,41.49
2018-02-15T12:57:47.078Z,41.41
2018-02-15T12:58:56.025Z,41.31
2018-02-15T13:00:04.701Z,41.29
2018-02-15T13:01:13.648Z,41.29
2018-02-15T13:02:23.324Z,41.31
2018-02-15T13:03:32.533Z,41.49
2018-02-15T13:04:41.208Z,41.41
2018-02-15T13:05:50.451Z,41.41
2018-02-15T13:06:59.401Z,41.29
2018-02-15T13:08:08.085Z,41.49
2018-02-15T13:09:16.757Z,41.5
2018-02-15T13:10:25.966Z,41.5
2018-02-15T13:11:34.911Z,41.22
2018-02-15T13:12:44.389Z,41.31
2018-02-15T13:13:53.608Z,41.31
2018-02-15T13:15:02.818Z,41.31
2018-02-15T13:16:11.769Z,41.31
2018-02-15T13:17:20.711Z,41.02
2018-02-15T13:18:29.389Z,40.52
2018-02-15T13:19:38.866Z,40.52
2018-02-15T13:20:47.812Z,40.33
2018-02-15T13:21:57.023Z,39.85
2018-02-15T13:23:05.701Z,39.95
2018-02-15T13:24:14.645Z,39.45
2018-02-15T13:25:23.325Z,40.22
2018-02-15T13:26:32.000Z,40.31
2018-02-15T13:27:40.674Z,40.99
2018-02-15T13:28:49.694Z,41.08
2018-02-15T13:29:58.374Z,40.99
2018-02-15T13:31:07.322Z,41.27
2018-02-15T13:32:16.266Z,41.94
2018-02-15T13:33:24.955Z,42.13
2018-02-15T13:34:33.936Z,42.61
2018-02-15T13:35:42.618Z,43
2018-02-15T13:36:51.832Z,42.9
2018-02-15T13:38:01.039Z,43
2018-02-15T13:39:09.718Z,42.61
2018-02-15T13:40:18.930Z,43.31
2018-02-15T13:41:27.876Z,43.31
2018-02-15T13:42:37.091Z,43.21
2018-02-15T13:43:45.772Z,43.31
2018-02-15T13:44:54.450Z,43.31
2018-02-15T13:46:03.661Z,43.4
2018-02-15T13:47:12.602Z,43.21
2018-02-15T13:48:21.541Z,43.21
2018-02-15T13:49:30.550Z,43.21
2018-02-15T13:50:40.635Z,43.02
2018-02-15T13:51:49.753Z,42.93
2018-02-15T13:52:58.965Z,43.02
2018-02-15T13:54:07.645Z,42.73
2018-02-15T13:55:16.594Z,42.64
2018-02-15T13:56:25.273Z,42.73
2018-02-15T13:57:34.492Z,43.12
2018-02-15T13:58:43.164Z,42.93
2018-02-15T13:59:52.168Z,42.73
2018-02-15T14:01:00.845Z,42.83
2018-02-15T14:02:10.053Z,42.73
2018-02-15T14:03:19.267Z,42.93
2018-02-15T14:04:28.480Z,42.93
2018-02-15T14:05:37.421Z,42.93
2018-02-15T14:06:46.099Z,42.83
2018-02-15T14:07:55.043Z,42.93
2018-02-15T14:09:03.721Z,42.73
2018-02-15T14:10:12.393Z,43.12
2018-02-15T14:11:21.605Z,42.64
2018-02-15T14:12:30.282Z,42.73
2018-02-15T14:13:38.958Z,42.73
2018-02-15T14:14:47.640Z,42.93
2018-02-15T14:15:56.585Z,42.54
2018-02-15T14:17:05.265Z,42.83
2018-02-15T14:18:14.741Z,42.73
2018-02-15T14:19:23.686Z,42.44
2018-02-15T14:20:32.362Z,42.37
2018-02-15T14:21:41.578Z,42.56
2018-02-15T14:22:50.798Z,42.25
2018-02-15T14:23:59.475Z,42.73
2018-02-15T14:25:08.156Z,42.47
2018-02-15T14:26:17.102Z,42.27
2018-02-15T14:27:26.060Z,42.44
2018-02-15T14:28:35.280Z,42.47
2018-02-15T14:29:43.955Z,42.18
2018-02-15T14:30:52.631Z,41.87
2018-02-15T14:32:01.308Z,41.77
2018-02-15T14:33:09.983Z,41.49
2018-02-15T14:34:18.929Z,41.39
2018-02-15T14:35:27.876Z,41.39
2018-02-15T14:36:36.827Z,41.2
2018-02-15T14:37:46.036Z,41.29
2018-02-15T14:38:54.715Z,41
2018-02-15T14:40:03.924Z,41.2
2018-02-15T14:41:13.134Z,41.29
2018-02-15T14:42:21.815Z,41.08
2018-02-15T14:43:30.757Z,41
2018-02-15T14:44:39.435Z,41.2
2018-02-15T14:45:48.380Z,41.39
2018-02-15T14:46:57.058Z,41.17
2018-02-15T14:48:06.530Z,41.46
2018-02-15T14:49:15.205Z,41.58
2018-02-15T14:50:23.882Z,41.27
2018-02-15T14:51:32.823Z,41.27
2018-02-15T14:52:41.503Z,41.37
2018-02-15T14:53:50.179Z,41.75
2018-02-15T14:54:59.123Z,41.56
2018-02-15T14:56:08.065Z,41.87